Time;durP1;ratioP1;P1;durP2;ratioP2;P2;SDS_P1;SDS_P2;PMS_P1;PMS_P2;Temp;Humidity;BMP_temperature;BMP_pressure;BME280_temperature;BME280_humidity;BME280_pressure;Samples;Min_cycle;Max_cycle;Signal;HPM_P1;HPM_P2
2022/08/16 00:00:39;;;;;;;13.50;12.30;;;19.40;99.90;;;;;;5033916;28;20470;-53
2022/08/16 00:03:06;;;;;;;13.67;12.47;;;19.40;99.90;;;;;;5035764;28;20437;-54
2022/08/16 00:05:32;;;;;;;13.20;12.10;;;19.30;99.90;;;;;;5026494;28;20429;-56
2022/08/16 00:07:58;;;;;;;14.07;12.77;;;19.30;99.90;;;;;;5029866;28;20473;-54
2022/08/16 00:10:25;;;;;;;14.13;12.87;;;19.30;99.90;;;;;;5031881;28;20425;-52
2022/08/16 00:12:51;;;;;;;14.67;13.30;;;19.20;99.90;;;;;;5031967;28;20187;-54
2022/08/16 00:15:26;;;;;;;12.83;11.63;;;19.20;99.90;;;;;;5027801;28;20441;-50
2022/08/16 00:17:51;;;;;;;13.23;12.13;;;19.20;99.90;;;;;;5032634;28;20416;-57
2022/08/16 00:20:17;;;;;;;14.63;13.33;;;19.10;99.90;;;;;;5029975;28;20946;-57
2022/08/16 00:22:44;;;;;;;13.63;12.33;;;19.10;99.90;;;;;;5030986;28;20178;-53
2022/08/16 00:25:13;;;;;;;14.17;12.70;;;19.00;99.90;;;;;;5030957;28;20884;-57
2022/08/16 00:27:40;;;;;;;13.73;12.53;;;19.00;99.90;;;;;;5031109;28;20453;-53
2022/08/16 00:30:09;;;;;;;14.30;13.10;;;19.00;99.90;;;;;;5029180;28;20446;-52
2022/08/16 00:32:36;;;;;;;13.80;12.50;;;18.90;99.90;;;;;;5030784;28;20496;-54
2022/08/16 00:35:02;;;;;;;13.70;12.50;;;18.90;99.90;;;;;;5030789;28;20390;-57
2022/08/16 00:37:28;;;;;;;13.13;12.00;;;18.90;99.90;;;;;;5030787;28;20414;-51
2022/08/16 00:39:53;;;;;;;13.37;12.17;;;18.90;99.90;;;;;;5030531;28;20414;-52
2022/08/16 00:42:20;;;;;;;13.47;12.27;;;18.80;99.90;;;;;;5030054;28;20168;-54
2022/08/16 00:44:52;;;;;;;12.97;11.87;;;18.80;99.90;;;;;;5026681;28;20278;-53
2022/08/16 00:47:20;;;;;;;14.77;13.47;;;18.70;99.90;;;;;;5030542;28;20476;-53
2022/08/16 00:49:45;;;;;;;13.77;12.37;;;18.60;99.90;;;;;;5029709;28;20442;-53
2022/08/16 00:52:11;;;;;;;14.17;12.97;;;18.60;99.90;;;;;;5030545;28;20440;-54
2022/08/16 00:54:37;;;;;;;14.57;13.27;;;18.60;99.90;;;;;;5030685;28;20171;-56
2022/08/16 00:57:03;;;;;;;14.20;13.00;;;18.60;99.90;;;;;;5030263;28;20233;-52
2022/08/16 00:59:32;;;;;;;14.13;12.83;;;18.60;99.90;;;;;;5030592;28;20565;-54
2022/08/16 01:01:59;;;;;;;14.87;13.63;;;18.50;99.90;;;;;;5030364;28;20418;-56
2022/08/16 01:04:26;;;;;;;14.03;12.73;;;18.50;99.90;;;;;;5030141;28;20413;-55
2022/08/16 01:06:53;;;;;;;14.77;13.53;;;18.40;99.90;;;;;;5030361;28;20438;-54
2022/08/16 01:09:19;;;;;;;14.97;13.57;;;18.40;99.90;;;;;;5028723;28;20952;-58
2022/08/16 01:11:46;;;;;;;14.73;13.23;;;18.40;99.90;;;;;;5032752;28;20488;-55
2022/08/16 01:14:20;;;;;;;14.37;13.07;;;18.40;99.90;;;;;;5031115;28;20441;-53
2022/08/16 01:16:47;;;;;;;15.63;14.10;;;18.30;99.90;;;;;;5028934;28;20953;-53
2022/08/16 01:19:27;;;;;;;15.57;14.07;;;18.30;99.90;;;;;;5029720;28;20851;-54
2022/08/16 01:21:57;;;;;;;15.20;13.70;;;18.40;99.90;;;;;;5030160;28;20417;-52
2022/08/16 01:24:49;;;;;;;15.10;13.70;;;18.30;99.90;;;;;;5030671;28;20425;-51
2022/08/16 01:27:24;;;;;;;14.13;12.83;;;18.30;99.90;;;;;;5016112;28;20465;-53
2022/08/16 01:30:02;;;;;;;14.23;13.03;;;18.20;99.90;;;;;;5030685;28;20436;-52
2022/08/16 01:32:30;;;;;;;14.57;13.27;;;18.20;99.90;;;;;;5029082;28;20829;-50
2022/08/16 01:34:56;;;;;;;16.37;14.77;;;18.20;99.90;;;;;;5029565;28;20394;-58
2022/08/16 01:37:21;;;;;;;14.60;13.30;;;18.20;99.90;;;;;;5029797;28;20505;-51
2022/08/16 01:39:47;;;;;;;15.60;14.10;;;18.20;99.90;;;;;;5029623;28;20800;-53
2022/08/16 01:42:13;;;;;;;14.70;13.30;;;18.20;99.90;;;;;;5029765;28;20187;-54
2022/08/16 01:44:39;;;;;;;15.80;14.30;;;18.10;99.90;;;;;;5026660;28;20195;-53
2022/08/16 01:47:06;;;;;;;15.07;13.70;;;18.10;99.90;;;;;;5029551;28;20184;-50
2022/08/16 01:49:39;;;;;;;15.53;14.13;;;18.00;99.90;;;;;;5029581;28;20418;-54
2022/08/16 01:52:11;;;;;;;15.97;14.50;;;18.10;99.90;;;;;;5025913;28;20592;-55
2022/08/16 01:54:38;;;;;;;14.47;13.17;;;18.00;99.90;;;;;;5029353;28;20796;-55
2022/08/16 01:57:04;;;;;;;15.90;14.40;;;18.00;99.90;;;;;;5029530;28;20481;-55
2022/08/16 01:59:32;;;;;;;16.10;14.60;;;18.00;99.90;;;;;;5028380;28;20952;-50
2022/08/16 02:01:59;;;;;;;14.90;13.53;;;18.00;99.90;;;;;;5029374;28;20413;-55
2022/08/16 02:04:24;;;;;;;15.40;14.00;;;17.90;99.90;;;;;;5029309;28;20475;-52
2022/08/16 02:06:50;;;;;;;14.73;13.43;;;17.90;99.90;;;;;;5026585;28;20442;-60
2022/08/16 02:09:18;;;;;;;15.40;13.90;;;17.90;99.90;;;;;;5029578;28;20232;-50
2022/08/16 02:11:51;;;;;;;15.67;14.23;;;17.90;99.90;;;;;;5026751;28;20445;-60
2022/08/16 02:14:17;;;;;;;15.70;14.20;;;17.80;99.90;;;;;;5036877;28;20413;-56
2022/08/16 02:16:43;;;;;;;15.67;14.17;;;17.80;99.90;;;;;;5029046;28;20425;-55
2022/08/16 02:19:10;;;;;;;15.90;14.27;;;17.80;99.90;;;;;;5029623;28;20783;-53
2022/08/16 02:21:36;;;;;;;16.30;14.80;;;17.70;99.90;;;;;;5027567;28;20471;-58
2022/08/16 02:24:03;;;;;;;16.73;15.20;;;17.70;99.90;;;;;;5030021;28;20436;-52
2022/08/16 02:26:28;;;;;;;16.90;15.27;;;17.70;99.90;;;;;;5029015;28;21021;-59
2022/08/16 02:28:55;;;;;;;15.60;14.10;;;17.60;99.90;;;;;;5029043;28;20559;-50
2022/08/16 02:31:21;;;;;;;16.73;15.13;;;17.60;99.90;;;;;;5028890;28;20643;-53
2022/08/16 02:33:47;;;;;;;16.20;14.70;;;17.60;99.90;;;;;;5028918;28;20760;-55
2022/08/16 02:36:14;;;;;;;15.70;14.23;;;17.60;99.90;;;;;;5029470;28;20427;-55
2022/08/16 02:38:40;;;;;;;15.77;14.33;;;17.50;99.90;;;;;;5026551;28;20431;-51
2022/08/16 02:41:08;;;;;;;16.30;14.80;;;17.60;99.90;;;;;;5024915;28;20540;-51
2022/08/16 02:43:34;;;;;;;17.00;15.40;;;17.50;99.90;;;;;;5029622;28;20432;-52
2022/08/16 02:46:01;;;;;;;15.77;14.27;;;17.40;99.90;;;;;;5028701;28;20824;-52
2022/08/16 02:48:27;;;;;;;15.47;14.17;;;17.40;99.90;;;;;;5028653;28;20546;-54
2022/08/16 02:50:53;;;;;;;15.20;13.70;;;17.40;99.90;;;;;;5028854;28;20565;-54
2022/08/16 02:53:19;;;;;;;14.70;13.40;;;17.30;99.90;;;;;;5026548;28;20448;-51
2022/08/16 02:55:45;;;;;;;16.10;14.60;;;17.40;99.90;;;;;;5030404;28;20428;-54
2022/08/16 02:58:11;;;;;;;16.50;14.93;;;17.40;99.90;;;;;;5028751;28;20468;-53
2022/08/16 03:00:37;;;;;;;15.63;14.13;;;17.30;99.90;;;;;;5025384;28;20190;-49
2022/08/16 03:03:03;;;;;;;16.83;15.13;;;17.30;99.90;;;;;;5028865;28;20662;-52
2022/08/16 03:05:29;;;;;;;17.40;15.80;;;17.20;99.90;;;;;;5030415;28;20491;-53
2022/08/16 03:07:55;;;;;;;18.63;15.73;;;17.20;99.90;;;;;;5030838;28;20472;-53
2022/08/16 03:10:21;;;;;;;16.37;14.87;;;17.20;99.90;;;;;;5032436;28;20402;-54
2022/08/16 03:12:49;;;;;;;17.27;15.57;;;17.20;99.90;;;;;;5032431;28;20181;-52
2022/08/16 03:15:15;;;;;;;16.13;14.73;;;17.20;99.90;;;;;;5037307;28;20186;-48
2022/08/16 03:17:42;;;;;;;16.17;14.67;;;17.10;99.90;;;;;;5032382;28;20413;-55
2022/08/16 03:20:10;;;;;;;16.57;14.97;;;17.10;99.90;;;;;;5033923;28;20483;-52
2022/08/16 03:22:36;;;;;;;16.73;15.10;;;17.00;99.90;;;;;;5028865;28;20443;-53
2022/08/16 03:25:05;;;;;;;17.27;15.57;;;17.00;99.90;;;;;;5031715;28;20447;-54
2022/08/16 03:27:32;;;;;;;16.00;14.50;;;17.00;99.90;;;;;;5031957;28;20256;-55
2022/08/16 03:30:06;;;;;;;17.47;15.93;;;17.00;99.90;;;;;;5032670;28;20950;-53
2022/08/16 03:32:31;;;;;;;17.10;15.43;;;17.00;99.90;;;;;;5031771;28;20451;-51
2022/08/16 03:34:57;;;;;;;16.37;14.87;;;17.00;99.90;;;;;;5030236;28;20965;-50
2022/08/16 03:37:22;;;;;;;16.23;14.63;;;17.00;99.90;;;;;;5032435;28;20496;-53
2022/08/16 03:39:48;;;;;;;16.40;14.80;;;17.00;99.90;;;;;;5031613;28;20202;-54
2022/08/16 03:42:13;;;;;;;16.20;14.70;;;17.00;99.90;;;;;;5031781;28;20178;-52
2022/08/16 03:44:41;;;;;;;16.10;14.60;;;17.00;99.90;;;;;;5032584;28;20193;-54
2022/08/16 03:47:08;;;;;;;16.53;14.00;;;17.00;99.90;;;;;;5037508;28;20178;-51
2022/08/16 03:49:34;;;;;;;17.20;15.50;;;17.00;99.90;;;;;;5034900;28;20490;-51
2022/08/16 03:52:00;;;;;;;16.43;14.83;;;17.00;99.90;;;;;;5033812;28;20590;-52
2022/08/16 03:54:26;;;;;;;16.10;14.60;;;17.00;99.90;;;;;;5032917;28;20993;-55
2022/08/16 03:56:52;;;;;;;17.17;15.57;;;17.00;99.90;;;;;;5031942;28;20456;-50
2022/08/16 03:59:17;;;;;;;16.23;14.73;;;17.00;99.90;;;;;;5031705;28;21421;-56
2022/08/16 04:01:43;;;;;;;17.20;15.70;;;17.00;99.90;;;;;;5030620;28;20502;-55
2022/08/16 04:04:09;;;;;;;18.63;16.93;;;16.90;99.90;;;;;;5014094;28;20255;-49
2022/08/16 04:06:34;;;;;;;18.83;16.93;;;17.00;99.90;;;;;;5031220;28;20658;-52
2022/08/16 04:09:00;;;;;;;18.13;16.33;;;16.90;99.90;;;;;;5029178;28;20206;-50
2022/08/16 04:11:25;;;;;;;16.80;15.20;;;16.90;99.90;;;;;;5022183;28;20186;-54
2022/08/16 04:13:51;;;;;;;16.17;14.67;;;17.00;99.90;;;;;;5022437;28;20211;-54
2022/08/16 04:16:17;;;;;;;17.30;15.70;;;17.00;99.90;;;;;;5021855;28;20208;-55
2022/08/16 04:18:43;;;;;;;16.90;15.30;;;17.00;99.90;;;;;;5013611;28;20193;-56
2022/08/16 04:21:09;;;;;;;16.87;15.17;;;17.00;99.90;;;;;;5015291;28;20448;-48
2022/08/16 04:23:36;;;;;;;16.80;15.30;;;17.00;99.90;;;;;;5008238;28;20429;-51
2022/08/16 04:26:02;;;;;;;17.23;15.63;;;17.00;99.90;;;;;;5012331;28;20196;-54
2022/08/16 04:28:28;;;;;;;16.70;15.10;;;17.00;99.90;;;;;;5021472;28;20518;-53
2022/08/16 04:30:54;;;;;;;17.53;15.93;;;17.00;99.90;;;;;;5020126;28;20437;-49
2022/08/16 04:33:20;;;;;;;16.00;14.50;;;17.10;99.90;;;;;;5018930;28;21029;-54
2022/08/16 04:35:45;;;;;;;16.77;15.00;;;17.00;99.90;;;;;;5021458;28;20194;-54
2022/08/16 04:38:11;;;;;;;16.07;14.50;;;17.10;99.90;;;;;;5020753;28;20668;-55
2022/08/16 04:40:37;;;;;;;17.57;15.90;;;17.00;99.90;;;;;;5012735;28;20651;-55
2022/08/16 04:43:03;;;;;;;19.00;16.70;;;17.00;99.90;;;;;;5026241;28;20182;-50
2022/08/16 04:45:29;;;;;;;17.63;15.80;;;17.10;99.90;;;;;;5030643;28;20481;-53
2022/08/16 04:47:55;;;;;;;17.37;15.67;;;17.10;99.90;;;;;;5031067;28;20539;-51
2022/08/16 04:50:25;;;;;;;16.00;14.50;;;17.10;99.90;;;;;;5031110;28;20565;-51
2022/08/16 04:52:52;;;;;;;16.70;15.20;;;17.20;99.90;;;;;;5031066;28;20474;-57
2022/08/16 04:55:21;;;;;;;16.33;14.80;;;17.20;99.90;;;;;;5030369;28;20419;-54
2022/08/16 04:57:49;;;;;;;17.07;15.47;;;17.30;99.90;;;;;;5030171;28;20514;-54
2022/08/16 05:00:19;;;;;;;16.90;15.30;;;17.40;99.90;;;;;;5030146;28;20425;-51
2022/08/16 05:02:47;;;;;;;16.57;14.97;;;17.40;99.90;;;;;;5036828;28;20938;-51
2022/08/16 05:05:13;;;;;;;15.97;14.47;;;17.40;99.90;;;;;;5021625;28;20443;-54
2022/08/16 05:07:39;;;;;;;16.83;15.23;;;17.50;99.90;;;;;;5030404;28;20948;-53
2022/08/16 05:10:08;;;;;;;16.03;14.60;;;17.60;99.90;;;;;;5029399;28;20900;-54
2022/08/16 05:12:34;;;;;;;16.83;15.23;;;17.60;99.90;;;;;;5020123;28;20826;-53
2022/08/16 05:15:00;;;;;;;17.10;15.47;;;17.70;99.90;;;;;;5030077;28;20529;-52
2022/08/16 05:17:26;;;;;;;16.10;14.60;;;17.70;99.90;;;;;;5028261;28;20460;-53
2022/08/16 05:19:52;;;;;;;16.10;14.60;;;17.70;99.90;;;;;;5030585;28;20436;-53
2022/08/16 05:22:18;;;;;;;16.73;15.03;;;17.70;99.90;;;;;;5032520;28;20447;-53
2022/08/16 05:24:44;;;;;;;15.60;14.20;;;17.80;99.90;;;;;;5037421;28;20552;-52
2022/08/16 05:27:10;;;;;;;16.67;14.63;;;17.80;99.90;;;;;;5038655;28;20509;-54
2022/08/16 05:29:35;;;;;;;17.87;15.70;;;17.80;99.90;;;;;;5038482;28;20293;-53
2022/08/16 05:32:02;;;;;;;15.83;14.33;;;17.90;99.90;;;;;;5038422;28;20189;-53
2022/08/16 05:34:28;;;;;;;15.43;14.03;;;18.00;99.90;;;;;;5040001;28;20174;-54
2022/08/16 05:36:56;;;;;;;15.17;13.67;;;18.10;99.90;;;;;;5035491;28;20409;-55
2022/08/16 05:39:23;;;;;;;16.07;14.57;;;18.10;99.90;;;;;;5036211;28;20532;-56
2022/08/16 05:41:50;;;;;;;15.90;14.40;;;18.20;99.90;;;;;;5041439;28;20448;-54
2022/08/16 05:44:17;;;;;;;14.90;13.60;;;18.30;99.90;;;;;;5029708;28;20958;-54
2022/08/16 05:46:44;;;;;;;16.10;14.53;;;18.30;99.90;;;;;;5030243;28;20414;-55
2022/08/16 05:49:12;;;;;;;15.63;14.23;;;18.40;99.90;;;;;;5030994;28;20825;-55
2022/08/16 05:51:39;;;;;;;14.60;13.30;;;18.40;99.90;;;;;;5029717;28;20398;-50
2022/08/16 05:54:05;;;;;;;14.30;13.00;;;18.50;99.90;;;;;;5029376;28;20922;-50
2022/08/16 05:56:31;;;;;;;14.50;13.07;;;18.60;99.90;;;;;;5029442;28;20413;-52
2022/08/16 05:58:56;;;;;;;15.57;14.23;;;18.70;99.90;;;;;;5032515;28;20440;-52
2022/08/16 06:01:22;;;;;;;15.77;14.37;;;18.80;99.90;;;;;;5035101;28;20241;-49
2022/08/16 06:03:48;;;;;;;15.73;14.13;;;18.90;99.90;;;;;;5037122;28;20183;-54
2022/08/16 06:06:13;;;;;;;14.37;13.17;;;19.00;99.90;;;;;;5038889;28;20182;-53
2022/08/16 06:08:39;;;;;;;14.90;13.40;;;19.20;99.90;;;;;;5034183;28;20257;-53
2022/08/16 06:11:06;;;;;;;15.50;14.10;;;19.20;99.90;;;;;;5038664;28;20175;-54
2022/08/16 06:13:33;;;;;;;14.30;13.10;;;19.30;99.90;;;;;;5041661;28;20194;-51
2022/08/16 06:15:59;;;;;;;14.80;13.33;;;19.30;99.90;;;;;;5029063;28;20467;-53
2022/08/16 06:18:24;;;;;;;14.57;13.27;;;19.40;99.90;;;;;;5028995;28;20421;-53
2022/08/16 06:20:50;;;;;;;14.10;12.90;;;19.50;99.90;;;;;;5027001;28;20221;-55
2022/08/16 06:23:16;;;;;;;14.30;13.00;;;19.60;99.90;;;;;;5028776;28;20183;-55
2022/08/16 06:25:42;;;;;;;13.07;11.90;;;19.70;99.90;;;;;;5029141;28;21070;-56
2022/08/16 06:28:09;;;;;;;13.37;12.10;;;19.90;99.90;;;;;;5030055;28;20204;-55
2022/08/16 06:30:35;;;;;;;13.70;12.50;;;20.00;99.90;;;;;;5027263;28;20179;-54
2022/08/16 06:33:02;;;;;;;12.80;11.70;;;20.10;99.90;;;;;;5028092;28;21007;-56
2022/08/16 06:35:28;;;;;;;13.43;12.13;;;20.10;99.90;;;;;;5034282;28;20508;-58
2022/08/16 06:37:53;;;;;;;11.60;10.70;;;20.20;99.90;;;;;;5038505;28;21001;-58
2022/08/16 06:40:19;;;;;;;13.00;11.90;;;20.30;99.90;;;;;;5038222;28;20189;-54
2022/08/16 06:42:45;;;;;;;12.70;11.70;;;20.40;99.90;;;;;;5033396;28;20307;-58
2022/08/16 06:45:10;;;;;;;12.07;10.67;;;20.50;99.90;;;;;;5029179;28;20187;-55
2022/08/16 06:47:36;;;;;;;11.40;10.30;;;20.60;99.90;;;;;;5028287;28;20232;-54
2022/08/16 06:50:02;;;;;;;10.80;9.73;;;20.70;99.90;;;;;;5035762;28;20192;-55
2022/08/16 06:52:35;;;;;;;11.57;10.57;;;20.90;99.90;;;;;;5034645;28;20179;-54
2022/08/16 06:55:05;;;;;;;19.73;11.90;;;21.00;99.90;;;;;;5035571;28;20413;-55
2022/08/16 06:57:30;;;;;;;11.13;10.13;;;21.10;99.90;;;;;;5038680;28;20480;-53
2022/08/16 06:59:56;;;;;;;11.00;10.00;;;21.10;99.90;;;;;;5038701;28;20427;-53
2022/08/16 07:02:22;;;;;;;11.03;10.13;;;21.30;99.90;;;;;;5031277;28;20181;-56
2022/08/16 07:04:47;;;;;;;11.70;10.70;;;21.40;99.90;;;;;;5037907;28;20901;-51
2022/08/16 07:07:13;;;;;;;11.43;10.50;;;21.50;99.90;;;;;;5036381;28;20312;-55
2022/08/16 07:09:39;;;;;;;11.40;10.50;;;21.70;99.90;;;;;;5031552;28;20668;-56
2022/08/16 07:12:04;;;;;;;11.10;10.10;;;21.70;99.90;;;;;;5030269;28;20237;-52
2022/08/16 07:14:31;;;;;;;11.20;10.30;;;21.90;99.90;;;;;;5028287;28;20191;-52
2022/08/16 07:16:58;;;;;;;10.57;9.70;;;22.10;99.90;;;;;;5033364;28;20267;-52
2022/08/16 07:19:23;;;;;;;10.47;9.67;;;22.20;99.90;;;;;;5041497;28;20425;-58
2022/08/16 07:21:49;;;;;;;10.70;9.70;;;22.40;99.90;;;;;;5041045;28;20904;-53
2022/08/16 07:24:16;;;;;;;11.20;10.20;;;22.50;99.90;;;;;;5034861;28;20537;-56
2022/08/16 07:26:43;;;;;;;10.63;9.83;;;22.70;99.90;;;;;;5038512;28;20440;-52
2022/08/16 07:29:08;;;;;;;10.20;9.40;;;22.80;99.90;;;;;;5041956;28;20467;-56
2022/08/16 07:31:34;;;;;;;11.03;9.93;;;22.90;99.90;;;;;;5027780;28;20449;-54
2022/08/16 07:34:00;;;;;;;11.20;10.40;;;23.00;99.90;;;;;;5030024;28;20186;-58
2022/08/16 07:36:25;;;;;;;11.07;10.20;;;23.20;99.90;;;;;;5030298;28;20232;-51
2022/08/16 07:38:51;;;;;;;11.23;10.23;;;23.30;99.90;;;;;;5031023;28;20195;-54
2022/08/16 07:41:17;;;;;;;10.70;9.67;;;23.40;99.90;;;;;;5029623;28;20191;-54
2022/08/16 07:43:42;;;;;;;11.17;10.23;;;23.50;99.90;;;;;;5026965;28;20672;-52
2022/08/16 07:46:08;;;;;;;10.60;9.80;;;23.80;99.90;;;;;;5021680;28;20206;-55
2022/08/16 07:48:34;;;;;;;9.83;9.23;;;24.00;99.90;;;;;;5021638;28;20225;-53
2022/08/16 07:51:01;;;;;;;10.37;9.63;;;24.20;99.90;;;;;;5023387;28;20191;-56
2022/08/16 07:53:29;;;;;;;10.30;9.53;;;24.30;99.90;;;;;;5031389;28;20287;-56
2022/08/16 07:55:55;;;;;;;11.20;10.20;;;24.60;99.60;;;;;;5030636;28;20437;-49
2022/08/16 07:58:20;;;;;;;11.00;10.30;;;24.80;98.70;;;;;;5041722;28;20461;-54
2022/08/16 08:00:46;;;;;;;10.53;9.63;;;25.00;97.70;;;;;;5029762;28;20222;-55
2022/08/16 08:03:12;;;;;;;10.00;9.00;;;25.20;96.10;;;;;;5026236;28;20228;-54
2022/08/16 08:05:39;;;;;;;9.33;8.63;;;25.50;94.40;;;;;;5027972;28;20756;-54
2022/08/16 08:08:05;;;;;;;9.57;8.67;;;25.60;94.10;;;;;;5029415;28;20736;-51
2022/08/16 08:10:30;;;;;;;9.43;8.60;;;25.70;93.40;;;;;;5027679;28;20420;-55
2022/08/16 08:12:56;;;;;;;10.67;8.93;;;25.80;92.50;;;;;;5028996;28;20594;-56
2022/08/16 08:15:23;;;;;;;11.50;9.87;;;25.90;91.00;;;;;;5028358;28;20367;-52
2022/08/16 08:17:49;;;;;;;9.60;8.80;;;26.00;89.80;;;;;;5028645;28;20185;-52
2022/08/16 08:20:17;;;;;;;9.17;8.50;;;25.80;88.90;;;;;;5027644;28;20454;-59
2022/08/16 08:22:45;;;;;;;9.60;8.80;;;25.80;88.50;;;;;;5028101;28;20278;-54
2022/08/16 08:25:11;;;;;;;8.37;7.83;;;25.90;89.30;;;;;;5028996;28;20428;-53
2022/08/16 08:27:37;;;;;;;8.50;7.70;;;26.00;88.10;;;;;;5030261;28;20465;-54
2022/08/16 08:30:04;;;;;;;8.40;7.80;;;26.10;87.50;;;;;;5028854;28;20438;-57
2022/08/16 08:32:30;;;;;;;9.10;8.50;;;26.30;85.60;;;;;;5029326;28;20192;-55
2022/08/16 08:34:57;;;;;;;9.43;8.83;;;26.40;86.40;;;;;;5026712;28;20791;-52
2022/08/16 08:37:24;;;;;;;9.00;8.50;;;26.60;85.30;;;;;;5028577;28;20186;-54
2022/08/16 08:39:50;;;;;;;9.50;8.70;;;26.80;82.70;;;;;;5027849;28;20444;-53
2022/08/16 08:42:15;;;;;;;9.63;8.77;;;27.00;81.80;;;;;;5027556;28;20421;-53
2022/08/16 08:44:41;;;;;;;9.60;8.70;;;27.30;80.90;;;;;;5028687;28;20435;-55
2022/08/16 08:47:07;;;;;;;9.87;8.97;;;27.50;78.80;;;;;;5032523;28;20187;-54
2022/08/16 08:49:34;;;;;;;9.10;8.00;;;27.70;78.20;;;;;;5028561;28;20730;-55
2022/08/16 08:52:00;;;;;;;8.90;8.30;;;27.90;76.70;;;;;;5027495;28;20191;-53
2022/08/16 08:54:26;;;;;;;8.70;8.00;;;28.10;74.30;;;;;;5030157;28;21292;-53
2022/08/16 08:56:53;;;;;;;9.20;8.37;;;28.50;73.70;;;;;;5029183;28;20750;-54
2022/08/16 08:59:19;;;;;;;8.87;8.27;;;28.90;68.40;;;;;;5041332;28;20183;-53
2022/08/16 09:01:46;;;;;;;9.00;8.37;;;29.20;66.20;;;;;;5028589;28;20440;-56
2022/08/16 09:04:12;;;;;;;8.20;7.50;;;29.70;61.50;;;;;;5025306;28;20550;-54
2022/08/16 09:06:38;;;;;;;8.00;7.50;;;30.00;59.90;;;;;;5030677;28;20425;-55
2022/08/16 09:09:05;;;;;;;8.13;7.63;;;30.30;58.00;;;;;;5027429;28;20545;-56
2022/08/16 09:11:32;;;;;;;8.47;7.87;;;31.00;56.30;;;;;;5030066;28;20424;-50
2022/08/16 09:13:58;;;;;;;8.77;8.17;;;31.30;53.60;;;;;;5029281;28;20421;-57
2022/08/16 09:16:24;;;;;;;8.00;7.50;;;31.80;52.30;;;;;;5028661;28;20436;-54
2022/08/16 09:18:50;;;;;;;8.50;7.90;;;32.50;51.10;;;;;;5029949;28;20248;-50
2022/08/16 09:21:16;;;;;;;9.20;8.43;;;33.20;45.80;;;;;;5027194;28;20534;-52
2022/08/16 09:23:43;;;;;;;8.03;7.53;;;33.50;44.30;;;;;;5028468;28;20499;-53
2022/08/16 09:26:11;;;;;;;8.43;7.70;;;34.10;41.70;;;;;;5029054;28;20563;-53
2022/08/16 09:28:38;;;;;;;8.57;8.00;;;34.60;39.80;;;;;;5029341;28;20480;-54
2022/08/16 09:31:05;;;;;;;8.00;7.60;;;35.10;37.80;;;;;;5027932;28;20434;-56
2022/08/16 09:33:30;;;;;;;8.43;7.83;;;35.60;33.90;;;;;;5021662;28;20442;-51
2022/08/16 09:35:56;;;;;;;7.87;7.37;;;35.40;32.90;;;;;;5022139;28;20437;-56
2022/08/16 09:38:23;;;;;;;8.07;7.57;;;35.80;32.80;;;;;;5027769;28;20195;-54
2022/08/16 09:40:49;;;;;;;8.43;7.93;;;35.60;31.40;;;;;;5028984;28;20240;-51
2022/08/16 09:43:18;;;;;;;7.70;7.20;;;35.00;31.90;;;;;;5029183;28;20409;-57
2022/08/16 09:45:45;;;;;;;8.63;8.03;;;35.40;33.20;;;;;;5030910;28;20313;-54
2022/08/16 09:48:13;;;;;;;8.10;7.60;;;35.70;32.50;;;;;;5026590;28;20565;-56
2022/08/16 09:50:42;;;;;;;8.57;7.87;;;36.30;31.60;;;;;;5028059;28;21114;-54
2022/08/16 09:53:11;;;;;;;9.10;8.60;;;36.90;30.10;;;;;;5026815;28;20828;-57
2022/08/16 09:55:38;;;;;;;7.83;7.13;;;37.40;29.20;;;;;;5027469;28;20433;-55
2022/08/16 09:58:03;;;;;;;8.70;8.10;;;38.20;27.60;;;;;;5027116;28;20461;-57
2022/08/16 10:00:29;;;;;;;9.03;8.47;;;38.60;26.70;;;;;;5028096;28;20809;-57
2022/08/16 10:02:55;;;;;;;9.23;8.53;;;38.70;26.40;;;;;;5028200;28;20232;-56
2022/08/16 10:05:20;;;;;;;8.63;8.23;;;38.90;25.80;;;;;;5028971;28;20201;-55
2022/08/16 10:07:51;;;;;;;8.50;7.83;;;38.90;25.60;;;;;;5029451;28;20985;-53
2022/08/16 10:10:19;;;;;;;8.40;8.00;;;39.30;24.40;;;;;;5029222;28;20150;-55
2022/08/16 10:15:29;;;;;;;9.23;8.53;;;39.60;23.00;;;;;;5014345;28;20420;-56
2022/08/16 10:17:55;;;;;;;8.57;7.97;;;39.00;23.10;;;;;;5033409;28;20899;-55
2022/08/16 10:20:24;;;;;;;8.90;8.20;;;38.50;23.90;;;;;;5033314;28;20183;-57
2022/08/16 10:22:50;;;;;;;7.93;7.53;;;37.60;23.80;;;;;;5033003;28;21114;-57
2022/08/16 10:25:16;;;;;;;8.83;8.33;;;37.60;24.80;;;;;;5032973;28;20417;-56
2022/08/16 10:27:44;;;;;;;7.83;7.43;;;36.90;24.90;;;;;;5047291;28;20467;-56
2022/08/16 10:30:09;;;;;;;8.97;8.37;;;36.70;25.80;;;;;;5052905;28;20180;-56
2022/08/16 10:32:35;;;;;;;8.70;7.90;;;36.40;25.80;;;;;;5033411;28;20406;-54
2022/08/16 10:35:02;;;;;;;8.80;8.40;;;36.20;25.20;;;;;;5035466;28;20661;-55
2022/08/16 10:37:28;;;;;;;8.33;7.73;;;35.90;26.90;;;;;;5042081;28;20202;-54
2022/08/16 10:39:54;;;;;;;8.40;7.80;;;35.70;27.30;;;;;;5032960;28;20448;-54
2022/08/16 10:42:21;;;;;;;8.80;8.30;;;35.80;27.90;;;;;;5034158;28;20418;-57
2022/08/16 10:44:47;;;;;;;8.70;8.20;;;36.50;26.60;;;;;;5033330;28;20256;-55
2022/08/16 10:47:13;;;;;;;7.87;7.47;;;37.10;25.40;;;;;;5031522;28;20536;-52
2022/08/16 10:49:39;;;;;;;8.40;7.90;;;37.40;24.60;;;;;;5032632;28;21062;-53
2022/08/16 10:52:05;;;;;;;8.50;8.07;;;37.20;24.70;;;;;;5033449;28;20175;-53
2022/08/16 10:54:31;;;;;;;8.13;7.53;;;37.40;24.60;;;;;;5033190;28;20185;-52
2022/08/16 10:56:59;;;;;;;8.20;7.80;;;38.00;23.20;;;;;;5032376;28;20468;-57
2022/08/16 10:59:26;;;;;;;9.23;8.63;;;38.10;23.20;;;;;;5032221;28;20520;-54
2022/08/16 11:01:52;;;;;;;8.33;7.83;;;38.20;23.30;;;;;;5033251;28;20770;-55
2022/08/16 11:04:17;;;;;;;8.97;8.40;;;37.60;24.70;;;;;;5033236;28;20512;-56
2022/08/16 11:06:43;;;;;;;8.33;7.73;;;37.70;23.30;;;;;;5033448;28;20634;-55
2022/08/16 11:09:09;;;;;;;8.40;7.90;;;37.60;24.10;;;;;;5033102;28;20215;-56
2022/08/16 11:11:34;;;;;;;9.30;8.60;;;37.80;23.90;;;;;;5032951;28;20567;-58
2022/08/16 11:14:00;;;;;;;8.07;7.67;;;38.50;23.80;;;;;;5032519;28;20187;-54
2022/08/16 11:16:27;;;;;;;9.03;8.47;;;39.30;22.50;;;;;;5030568;28;20187;-56
2022/08/16 11:18:55;;;;;;;8.77;8.27;;;39.80;20.50;;;;;;5031373;28;21073;-57
2022/08/16 11:21:22;;;;;;;8.87;8.30;;;40.70;20.90;;;;;;5033088;28;20440;-57
2022/08/16 11:23:48;;;;;;;8.90;8.40;;;41.40;19.40;;;;;;5026744;28;20445;-54
2022/08/16 11:26:13;;;;;;;9.57;8.70;;;42.00;18.70;;;;;;5031184;28;20420;-57
2022/08/16 11:28:39;;;;;;;8.03;7.43;;;42.40;17.30;;;;;;5031776;28;20214;-53
2022/08/16 11:31:05;;;;;;;8.30;7.77;;;41.90;17.90;;;;;;5031762;28;20241;-56
2022/08/16 11:33:31;;;;;;;8.60;8.00;;;42.40;17.80;;;;;;5031939;28;20448;-55
2022/08/16 11:35:57;;;;;;;8.67;8.27;;;42.30;17.60;;;;;;5031714;28;20182;-59
2022/08/16 11:38:22;;;;;;;8.00;7.40;;;42.20;17.70;;;;;;5032529;28;20651;-57
2022/08/16 11:40:58;;;;;;;8.27;7.87;;;42.20;18.20;;;;;;5031842;28;20185;-56
2022/08/16 11:43:26;;;;;;;8.50;8.00;;;42.40;17.20;;;;;;5032798;28;20272;-57
2022/08/16 11:45:52;;;;;;;8.70;8.20;;;41.60;17.50;;;;;;5031392;28;20441;-57
2022/08/16 11:48:18;;;;;;;8.40;7.90;;;40.00;18.80;;;;;;5031768;28;20464;-56
2022/08/16 11:50:45;;;;;;;8.20;7.70;;;39.20;19.70;;;;;;5031798;28;20425;-52
2022/08/16 11:53:11;;;;;;;8.50;8.00;;;38.40;20.00;;;;;;5031547;28;20183;-58
2022/08/16 11:55:37;;;;;;;9.20;8.50;;;37.00;21.80;;;;;;5031935;28;20424;-53
2022/08/16 11:58:05;;;;;;;9.03;8.63;;;36.20;23.30;;;;;;5031153;28;20513;-56
2022/08/16 12:00:32;;;;;;;9.23;8.67;;;35.90;23.90;;;;;;5031292;28;21203;-55
2022/08/16 12:02:57;;;;;;;8.80;8.40;;;35.60;23.50;;;;;;5031476;28;20428;-58
2022/08/16 12:05:26;;;;;;;8.90;8.40;;;35.30;23.80;;;;;;5031163;28;20434;-57
2022/08/16 12:07:53;;;;;;;8.97;8.47;;;35.20;24.60;;;;;;5031198;28;20294;-56
2022/08/16 12:10:19;;;;;;;8.60;8.10;;;34.70;24.10;;;;;;5032744;28;20405;-54
2022/08/16 12:12:45;;;;;;;10.00;9.30;;;34.30;24.80;;;;;;5031125;28;20416;-57
2022/08/16 12:15:12;;;;;;;8.57;7.90;;;34.10;25.80;;;;;;5028740;28;20189;-56
2022/08/16 12:17:39;;;;;;;8.43;8.03;;;34.40;25.90;;;;;;5035973;28;20423;-55
2022/08/16 12:20:08;;;;;;;9.17;8.53;;;35.10;24.80;;;;;;5040285;28;20982;-57
2022/08/16 12:22:35;;;;;;;8.53;8.03;;;35.50;24.80;;;;;;5029814;28;20904;-54
2022/08/16 12:25:05;;;;;;;8.83;8.33;;;36.00;24.40;;;;;;5022945;28;20558;-49
2022/08/16 12:27:31;;;;;;;9.10;8.43;;;36.40;23.50;;;;;;5031213;28;20470;-55
2022/08/16 12:29:57;;;;;;;8.67;8.20;;;36.50;22.80;;;;;;5032508;28;20421;-57
2022/08/16 12:32:23;;;;;;;9.33;8.63;;;36.70;22.50;;;;;;5031130;28;20417;-56